This demonstration page uses our WeatherBlox Daily Observations layout. Learn more.

41.55636, -103.73856

Hourly Observations for October 19, 2019

Temp ( °F °C ) Dew Point ( °F °C ) Humidity (%) Winds ( mph kmh ) Pressure ( in mb ) Visibility ( mi km ) Precip ( " mm )
12:58 am 00:58 Clear 48 8.8 31 -0.5 52 52 Calm 29.81 1009 10 16.0934 0 0
1:58 am 01:58 Clear 43 5.9 32 -0.2 65 65 S 6 9 29.83 1010 10 16.0934 0 0
2:58 am 02:58 Clear 41 5.1 32 -0.2 69 69 SSW 5 7 29.83 1010 10 16.0934 0 0
3:58 am 03:58 Partly Cloudy 40 4.4 26 -3.6 56 56 SW 7 11 29.85 1011 10 16.0934 0 0
4:58 am 04:58 Clear 38 3.1 23 -5.1 55 55 SW 7 11 29.87 1011 10 16.0934 0 0
5:58 am 05:58 Clear 39 3.7 24 -4.7 55 55 W 13 20 29.88 1012 10 16.0934 0 0
6:58 am 06:58 Clear 36 2.4 21 -6 54 54 SW 9 15 29.89 1012 10 16.0934 0 0
7:58 am 07:58 Clear 36 2.3 21 -6.3 53 53 W 13 20 29.88 1012 10 16.0934 0 0
8:58 am 08:58 Clear 38 3.1 19 -7.5 46 46 WNW 13 20 29.89 1012 10 16.0934 0 0
9:58 am 09:58 Clear 37 2.7 20 -6.9 50 50 NNW 10 17 29.87 1011 10 16.0934 0 0
10:58 am 10:58 Clear 40 4.5 20 -6.5 45 45 WNW 15 24 29.87 1011 10 16.0934 0 0
11:58 am 11:58 Clear 37 2.5 20 -6.4 52 52 W 7 11 29.9 1013 10 16.0934 0 0
12:58 pm 12:58 Clear 35 1.9 21 -6.3 55 55 WNW 6 9 29.92 1013 10 16.0934 0 0
1:58 pm 13:58 Sunny 36 2.1 21 -6.3 54 54 Calm 29.94 1014 10 16.0934 0 0
2:58 pm 14:58 Sunny 46 8 20 -6.4 36 36 W 10 17 29.92 1013 10 16.0934 0 0
4:58 pm 16:58 Sunny 52 10.9 20 -6.8 28 28 NW 14 22 29.9 1013 10 16.0934 0 0
5:58 pm 17:58 Sunny 55 12.5 20 -6.8 26 26 WSW 12 19 29.85 1011 10 16.0934 0 0
6:58 pm 18:58 Sunny 57 14.1 19 -7.4 22 22 NW 17 28 29.8 1009 10 16.0934 0 0
7:58 pm 19:58 Mostly Sunny 60 15.3 15 -9.5 17 17 W 23 37 29.74 1007 10 16.0934 0 0
8:58 pm 20:58 Mostly Sunny 60 15.8 13 -10.6 15 15 W 16 26 29.7 1006 10 16.0934 0 0
9:58 pm 21:58 Partly Cloudy 59 15.2 12 -10.9 16 16 WNW 16 26 29.71 1006 10 16.0934 0 0
10:59 pm 22:59 Sunny 60 15.5 13 -10.5 16 16 NW 15 24 29.68 1005 10 16.0934 0 0
11:58 pm 23:58 Mostly Cloudy 53 11.6 17 -8.3 24 24 NNW 8 13 29.71 1006 10 16.0934 0 0

Powered by AerisWeather